LKPR/PRG METAR and TAF weather

Enter ICAO airport designator
Station Type Date Time Source
LKPR METAR 2021/06/24 06:30 UTC NOAA

LKPR 240630Z 34005KT 9999 FEW010 BKN021 18/17 Q1017 NOSIG


Station Type Date Time Source
LKPR Decoded METAR 2021/06/24 06:30 UTC NOAA

Praha / Ruzyne, Czech Republic (LKPR) 50-06N 014-15E 365M
Jun 24, 2021 - 02:30 AM EDT / 2021.06.24 0630 UTC
Wind: from the NNW (340 degrees) at 6 MPH (5 KT):0
Visibility: greater than 7 mile(s):0
Sky conditions: mostly cloudy
Temperature: 64 F (18 C)
Dew Point: 62 F (17 C)
Relative Humidity: 93%
Pressure (altimeter): 30.03 in. Hg (1017 hPa)
ob: LKPR 240630Z 34005KT 9999 FEW010 BKN021 18/17 Q1017 NOSIG
cycle: 6

Station Type Date Time Source
LKPR TAF 2021/06/24 06:30 UTC NOAA

TAF LKPR 240500Z 2406/2512 34006KT 9999 SCT025
TEMPO 2406/2407 SCT006
TEMPO 2418/2506 8000 SHRA BKN015 PROB30
TEMPO 2419/2504 25012G24KT 4000 TSRA SCT015CB

Example: see airport list